Time;durP1;ratioP1;P1;durP2;ratioP2;P2;SDS_P1;SDS_P2;PMS_P1;PMS_P2;Temp;Humidity;BMP_temperature;BMP_pressure;BME280_temperature;BME280_humidity;BME280_pressure;Samples;Min_cycle;Max_cycle;Signal;HPM_P1;HPM_P2
2022/02/13 00:00:13;;;;;;;26.73;10.70;;;5.50;86.30;;;;;;5033201;28;20035;-60
2022/02/13 00:02:40;;;;;;;32.17;10.98;;;5.50;85.60;;;;;;5016954;28;20053;-61
2022/02/13 00:05:05;;;;;;;27.83;10.75;;;5.50;85.60;;;;;;5017938;28;20568;-62
2022/02/13 00:07:33;;;;;;;21.58;9.45;;;5.50;85.60;;;;;;5018485;28;20038;-61
2022/02/13 00:09:59;;;;;;;17.33;9.80;;;5.40;85.60;;;;;;5019005;28;20505;-61
2022/02/13 00:12:24;;;;;;;24.15;10.55;;;5.40;86.20;;;;;;4997319;28;20117;-61
2022/02/13 00:14:49;;;;;;;30.77;10.18;;;5.40;85.60;;;;;;5028324;28;20567;-61
2022/02/13 00:17:15;;;;;;;25.65;9.90;;;5.40;85.70;;;;;;5025067;28;20091;-59
2022/02/13 00:19:41;;;;;;;20.52;9.40;;;5.40;85.70;;;;;;5018803;28;20053;-61
2022/02/13 00:22:06;;;;;;;21.50;8.88;;;5.40;85.70;;;;;;5022308;28;20060;-61
2022/02/13 00:24:32;;;;;;;29.63;9.77;;;5.30;85.70;;;;;;5019923;28;20438;-60
2022/02/13 00:26:58;;;;;;;25.77;9.20;;;5.30;85.70;;;;;;5021980;28;20048;-60
2022/02/13 00:29:23;;;;;;;20.70;9.93;;;5.30;85.80;;;;;;5015486;28;20058;-60
2022/02/13 00:31:49;;;;;;;28.20;9.35;;;5.30;85.80;;;;;;5020354;28;20040;-60
2022/02/13 00:34:14;;;;;;;21.10;9.10;;;5.30;85.80;;;;;;5028441;28;20125;-61
2022/02/13 00:36:40;;;;;;;19.67;8.55;;;5.30;85.90;;;;;;5023865;28;20053;-60
2022/02/13 00:39:08;;;;;;;17.67;8.57;;;5.20;85.90;;;;;;5010336;28;20052;-61
2022/02/13 00:41:34;;;;;;;20.70;8.55;;;5.20;86.00;;;;;;5024637;28;20034;-60
2022/02/13 00:44:00;;;;;;;21.42;9.45;;;5.20;86.00;;;;;;5026310;28;20052;-60
2022/02/13 00:46:26;;;;;;;18.55;9.27;;;5.20;86.00;;;;;;5013821;28;20046;-60
2022/02/13 00:48:52;;;;;;;21.17;9.20;;;5.20;85.90;;;;;;5022805;28;20478;-61
2022/02/13 00:51:17;;;;;;;20.08;9.40;;;5.20;86.00;;;;;;5025245;28;20022;-61
2022/02/13 00:53:43;;;;;;;24.52;8.23;;;5.20;86.00;;;;;;5019862;28;20029;-60
2022/02/13 00:56:09;;;;;;;19.10;8.40;;;5.20;85.90;;;;;;5019932;28;20045;-61
2022/02/13 00:58:35;;;;;;;20.92;8.55;;;5.20;85.90;;;;;;5017041;28;20037;-60
2022/02/13 01:01:01;;;;;;;17.67;8.48;;;5.10;85.90;;;;;;5022757;28;20087;-61
2022/02/13 01:03:26;;;;;;;19.77;8.55;;;5.10;86.10;;;;;;5024388;28;20033;-61
2022/02/13 01:05:52;;;;;;;18.63;8.90;;;5.10;86.10;;;;;;5025340;28;20107;-61
2022/02/13 01:08:17;;;;;;;17.73;8.65;;;5.10;86.20;;;;;;5019496;28;20132;-61
2022/02/13 01:10:42;;;;;;;18.98;8.77;;;5.10;86.10;;;;;;5019692;28;20135;-61
2022/02/13 01:13:08;;;;;;;24.92;8.48;;;5.10;86.10;;;;;;5028114;28;20576;-61
2022/02/13 01:15:34;;;;;;;17.02;8.65;;;5.10;86.20;;;;;;4993032;28;20191;-60
2022/02/13 01:17:59;;;;;;;18.25;7.78;;;5.10;86.10;;;;;;5024168;28;20036;-60
2022/02/13 01:20:24;;;;;;;22.67;8.73;;;5.10;86.20;;;;;;5022713;28;20041;-61
2022/02/13 01:22:50;;;;;;;17.23;8.18;;;5.00;86.20;;;;;;5018930;28;20087;-61
2022/02/13 01:25:15;;;;;;;19.80;7.72;;;5.00;86.20;;;;;;5017959;28;20069;-60
2022/02/13 01:27:41;;;;;;;14.65;6.90;;;5.00;86.20;;;;;;5012025;28;20104;-62
2022/02/13 01:30:07;;;;;;;17.23;8.23;;;5.00;86.20;;;;;;5021542;28;20353;-61
2022/02/13 01:32:33;;;;;;;17.45;8.15;;;5.00;86.20;;;;;;5026710;28;20034;-61
2022/02/13 01:34:58;;;;;;;21.40;8.93;;;5.00;86.20;;;;;;5019418;28;20437;-61
2022/02/13 01:37:24;;;;;;;19.33;7.75;;;5.00;86.20;;;;;;5019943;28;20484;-61
2022/02/13 01:39:49;;;;;;;18.73;8.35;;;4.90;86.20;;;;;;5019063;28;20045;-62
2022/02/13 01:42:15;;;;;;;16.45;7.82;;;5.00;86.30;;;;;;5011834;28;20026;-61
2022/02/13 01:44:40;;;;;;;16.48;7.45;;;5.00;86.30;;;;;;5019314;28;20018;-61
2022/02/13 01:47:06;;;;;;;14.27;7.50;;;4.90;86.30;;;;;;5020389;28;20097;-61
2022/02/13 01:49:32;;;;;;;16.40;8.07;;;4.90;86.30;;;;;;5020004;28;20122;-61
2022/02/13 01:52:03;;;;;;;17.05;7.80;;;4.90;86.30;;;;;;4991611;28;20448;-61
2022/02/13 01:54:29;;;;;;;18.35;8.57;;;4.90;86.40;;;;;;5024182;28;20092;-60
2022/02/13 01:56:54;;;;;;;14.63;7.90;;;4.90;86.40;;;;;;5018027;28;20040;-60
2022/02/13 01:59:20;;;;;;;17.02;8.02;;;4.80;86.40;;;;;;5019612;28;20040;-59
2022/02/13 02:01:45;;;;;;;14.73;7.88;;;4.80;86.40;;;;;;5026515;28;20026;-61
2022/02/13 02:04:11;;;;;;;16.52;7.65;;;4.80;86.50;;;;;;5018515;28;20068;-61
2022/02/13 02:06:37;;;;;;;14.95;7.22;;;4.80;86.60;;;;;;4992853;28;20033;-61
2022/02/13 02:09:03;;;;;;;23.75;8.38;;;4.80;86.60;;;;;;5007230;28;20034;-59
2022/02/13 02:11:29;;;;;;;19.15;8.30;;;4.80;86.60;;;;;;5020076;28;20021;-61
2022/02/13 02:13:54;;;;;;;16.30;6.80;;;4.80;86.60;;;;;;5025357;28;20048;-61
2022/02/13 02:16:20;;;;;;;15.98;8.32;;;4.70;86.60;;;;;;5009907;28;20022;-59
2022/02/13 02:18:45;;;;;;;14.05;7.35;;;4.70;86.60;;;;;;5019496;28;20034;-59
2022/02/13 02:21:11;;;;;;;15.23;6.97;;;4.70;87.20;;;;;;5021369;28;20034;-60
2022/02/13 02:23:40;;;;;;;14.85;7.47;;;4.70;86.60;;;;;;5020648;28;20530;-61
2022/02/13 02:26:07;;;;;;;15.20;7.70;;;4.70;86.70;;;;;;5017099;28;20551;-60
2022/02/13 02:28:32;;;;;;;12.35;6.88;;;4.70;86.70;;;;;;5015017;28;20026;-60
2022/02/13 02:30:58;;;;;;;18.30;7.70;;;4.70;86.70;;;;;;5006415;28;20157;-61
2022/02/13 02:33:23;;;;;;;17.67;7.45;;;4.70;86.70;;;;;;5020438;28;20448;-60
2022/02/13 02:35:49;;;;;;;13.27;7.20;;;4.70;86.80;;;;;;5010007;28;20032;-61
2022/02/13 02:38:14;;;;;;;15.65;7.75;;;4.60;86.80;;;;;;5020597;28;20492;-60
2022/02/13 02:40:41;;;;;;;14.00;7.38;;;4.60;86.70;;;;;;5008583;28;20736;-61
2022/02/13 02:43:06;;;;;;;12.10;7.03;;;4.70;86.80;;;;;;5018962;28;20113;-61
2022/02/13 02:45:32;;;;;;;13.57;7.22;;;4.60;86.70;;;;;;5009145;28;20104;-61
2022/02/13 02:47:57;;;;;;;14.82;7.63;;;4.60;87.30;;;;;;5004482;28;20549;-60
2022/02/13 02:50:23;;;;;;;12.35;6.57;;;4.60;86.70;;;;;;5019796;28;20072;-61
2022/02/13 02:52:49;;;;;;;20.45;7.55;;;4.60;86.80;;;;;;5020879;28;20091;-61
2022/02/13 02:55:14;;;;;;;13.18;7.38;;;4.60;86.80;;;;;;5014473;28;20025;-60
2022/02/13 02:57:40;;;;;;;11.13;6.65;;;4.60;86.80;;;;;;5020142;28;20041;-61
2022/02/13 03:00:06;;;;;;;16.45;6.75;;;4.60;86.90;;;;;;5007877;28;20032;-60
2022/02/13 03:02:32;;;;;;;9.52;6.10;;;4.60;86.90;;;;;;5002694;28;20029;-60
2022/02/13 03:04:58;;;;;;;13.60;6.45;;;4.60;86.90;;;;;;5009261;28;20479;-61
2022/02/13 03:07:23;;;;;;;10.70;6.10;;;4.50;86.90;;;;;;5015981;28;20029;-61
2022/02/13 03:09:49;;;;;;;12.80;6.38;;;4.50;86.90;;;;;;5011694;28;20029;-61
2022/02/13 03:12:14;;;;;;;12.55;6.50;;;4.50;86.90;;;;;;5003402;28;20022;-60
2022/02/13 03:14:40;;;;;;;14.23;6.55;;;4.50;86.90;;;;;;5024407;28;20030;-61
2022/02/13 03:17:06;;;;;;;11.75;6.10;;;4.50;87.00;;;;;;5020121;28;20026;-60
2022/02/13 03:19:36;;;;;;;13.13;6.45;;;4.50;87.00;;;;;;5019478;28;20240;-62
2022/02/13 03:22:02;;;;;;;11.45;6.25;;;4.50;87.00;;;;;;5017764;28;20420;-61
2022/02/13 03:24:27;;;;;;;11.13;6.50;;;4.40;87.00;;;;;;5025634;28;20041;-61
2022/02/13 03:26:53;;;;;;;12.95;6.38;;;4.40;87.00;;;;;;5021891;28;20116;-60
2022/02/13 03:29:18;;;;;;;16.23;6.45;;;4.40;87.00;;;;;;5020082;28;20128;-61
2022/02/13 03:31:44;;;;;;;13.43;6.75;;;4.40;87.00;;;;;;5019174;28;20458;-60
2022/02/13 03:34:09;;;;;;;10.52;6.15;;;4.50;87.10;;;;;;5019801;28;20048;-61
2022/02/13 03:36:35;;;;;;;11.02;6.22;;;4.50;87.10;;;;;;5020593;28;20358;-60
2022/02/13 03:39:01;;;;;;;12.50;5.68;;;4.40;87.10;;;;;;5012637;28;20025;-61
2022/02/13 03:41:26;;;;;;;10.65;6.22;;;4.40;87.20;;;;;;5023049;28;20083;-60
2022/02/13 03:43:52;;;;;;;8.90;5.75;;;4.40;87.10;;;;;;5019587;28;20102;-61
2022/02/13 03:46:17;;;;;;;8.38;5.72;;;4.40;87.10;;;;;;5016728;28;20538;-61
2022/02/13 03:48:43;;;;;;;11.07;5.68;;;4.40;87.20;;;;;;5022849;28;20064;-61
2022/02/13 03:51:09;;;;;;;10.43;6.47;;;4.40;87.20;;;;;;5021184;28;20045;-61
2022/02/13 03:53:34;;;;;;;9.40;5.85;;;4.30;87.10;;;;;;4996521;28;20030;-60
2022/02/13 03:55:59;;;;;;;9.57;5.47;;;4.30;87.10;;;;;;5021638;28;20465;-60
2022/02/13 03:58:25;;;;;;;10.70;6.30;;;4.30;87.20;;;;;;5020068;28;20031;-62
2022/02/13 04:00:51;;;;;;;11.02;5.97;;;4.30;87.20;;;;;;5016223;28;20095;-61
2022/02/13 04:03:16;;;;;;;12.73;5.72;;;4.30;87.20;;;;;;5023649;28;20030;-61
2022/02/13 04:05:42;;;;;;;10.45;5.50;;;4.30;87.30;;;;;;5025849;28;20433;-61
2022/02/13 04:08:08;;;;;;;9.30;5.88;;;4.30;87.50;;;;;;5023998;28;20029;-60
2022/02/13 04:10:33;;;;;;;9.50;5.82;;;4.20;87.50;;;;;;5004081;28;20033;-61
2022/02/13 04:12:59;;;;;;;7.97;5.30;;;4.20;87.50;;;;;;4995478;28;20034;-61
2022/02/13 04:15:25;;;;;;;10.25;5.80;;;4.20;87.40;;;;;;5003730;28;20056;-62
2022/02/13 04:17:51;;;;;;;11.43;5.53;;;4.20;87.50;;;;;;5024334;28;20096;-61
2022/02/13 04:20:16;;;;;;;12.73;6.35;;;4.20;87.40;;;;;;5020882;28;20029;-59
2022/02/13 04:22:42;;;;;;;8.70;5.55;;;4.20;87.50;;;;;;5023175;28;20033;-60
2022/02/13 04:25:08;;;;;;;10.02;5.63;;;4.20;87.50;;;;;;5003631;28;20616;-60
2022/02/13 04:27:36;;;;;;;13.00;5.80;;;4.20;87.50;;;;;;5016888;28;20294;-60
2022/02/13 04:30:04;;;;;;;11.25;5.57;;;4.10;87.50;;;;;;5021221;28;20701;-60
2022/02/13 04:32:29;;;;;;;9.23;5.20;;;4.10;87.50;;;;;;5020328;28;20029;-61
2022/02/13 04:34:55;;;;;;;9.90;5.32;;;4.10;87.50;;;;;;5022004;28;20457;-61
2022/02/13 04:37:22;;;;;;;8.43;5.28;;;4.10;87.60;;;;;;5002058;28;20026;-61
2022/02/13 04:39:48;;;;;;;9.77;5.38;;;4.10;87.60;;;;;;5020769;28;20100;-60
2022/02/13 04:42:13;;;;;;;9.18;5.43;;;4.10;87.60;;;;;;5010235;28;20160;-61
2022/02/13 04:44:40;;;;;;;7.97;5.15;;;4.10;87.70;;;;;;5023051;28;20505;-60
2022/02/13 04:47:05;;;;;;;9.60;5.22;;;4.00;87.60;;;;;;5013523;28;20029;-61
2022/02/13 04:49:31;;;;;;;8.65;5.22;;;4.10;87.70;;;;;;5021428;28;20140;-61
2022/02/13 04:51:56;;;;;;;8.73;5.38;;;4.10;87.70;;;;;;4992499;28;20133;-61
2022/02/13 04:54:22;;;;;;;12.90;5.43;;;4.00;87.70;;;;;;5020171;28;20461;-60
2022/02/13 04:56:47;;;;;;;9.63;5.07;;;4.10;87.70;;;;;;5025063;28;20083;-60
2022/02/13 04:59:13;;;;;;;8.13;5.03;;;4.10;87.70;;;;;;5021648;28;20100;-60
2022/02/13 05:01:38;;;;;;;8.57;5.05;;;4.00;87.80;;;;;;5021330;28;20025;-60
2022/02/13 05:04:04;;;;;;;10.45;5.10;;;4.00;87.90;;;;;;5018483;28;20252;-61
2022/02/13 05:06:30;;;;;;;8.52;4.90;;;4.00;87.90;;;;;;5013378;28;20092;-60
2022/02/13 05:08:56;;;;;;;8.77;4.95;;;4.00;87.90;;;;;;5019245;28;20041;-60
2022/02/13 05:11:21;;;;;;;6.57;4.40;;;4.00;87.80;;;;;;5021421;28;20491;-60
2022/02/13 05:13:47;;;;;;;6.68;5.05;;;4.00;87.80;;;;;;5020074;28;20025;-61
2022/02/13 05:16:13;;;;;;;10.20;4.93;;;4.00;87.80;;;;;;5014686;28;20109;-61
2022/02/13 05:18:38;;;;;;;9.13;5.25;;;4.00;87.80;;;;;;5023778;28;20109;-61
2022/02/13 05:21:04;;;;;;;11.38;5.25;;;3.90;87.80;;;;;;5006033;28;20046;-60
2022/02/13 05:23:29;;;;;;;7.07;4.63;;;4.00;87.90;;;;;;5021867;28;20033;-61
2022/02/13 05:25:55;;;;;;;10.00;4.85;;;4.00;87.90;;;;;;5010509;28;20026;-60
2022/02/13 05:28:20;;;;;;;8.75;4.38;;;4.00;87.90;;;;;;5020229;28;20535;-61
2022/02/13 05:30:46;;;;;;;6.88;4.68;;;4.00;87.90;;;;;;5021546;28;20046;-60
2022/02/13 05:33:11;;;;;;;12.48;4.93;;;3.90;87.80;;;;;;5023317;28;20037;-61
2022/02/13 05:35:37;;;;;;;10.07;4.65;;;3.90;87.80;;;;;;5009305;28;20026;-61
2022/02/13 05:38:02;;;;;;;8.85;5.22;;;3.90;87.90;;;;;;5022058;28;20473;-61
2022/02/13 05:40:28;;;;;;;9.35;4.88;;;3.90;87.90;;;;;;5027450;28;20033;-61
2022/02/13 05:42:53;;;;;;;6.35;4.50;;;4.00;87.90;;;;;;5018397;28;20040;-60
2022/02/13 05:45:19;;;;;;;6.72;4.28;;;3.90;87.90;;;;;;5013825;28;20033;-60
2022/02/13 05:47:46;;;;;;;12.07;4.47;;;3.90;87.80;;;;;;5011424;28;20038;-61
2022/02/13 05:50:12;;;;;;;8.48;5.05;;;3.90;87.90;;;;;;5019092;28;20022;-60
2022/02/13 05:52:38;;;;;;;7.65;4.50;;;4.00;87.90;;;;;;5024132;28;20032;-61
2022/02/13 05:55:04;;;;;;;6.68;4.07;;;3.90;87.90;;;;;;5016698;28;20018;-59
2022/02/13 05:57:30;;;;;;;8.38;4.35;;;3.90;87.90;;;;;;5014640;28;20732;-61
2022/02/13 05:59:55;;;;;;;7.05;4.10;;;3.90;87.90;;;;;;5023109;28;20080;-61
2022/02/13 06:02:21;;;;;;;10.63;4.43;;;3.90;88.70;;;;;;5020322;28;20084;-60
2022/02/13 06:04:46;;;;;;;48.53;7.15;;;3.90;88.30;;;;;;5019753;28;20053;-60
2022/02/13 06:07:12;;;;;;;32.35;5.75;;;3.90;88.40;;;;;;5024681;28;20096;-61
2022/02/13 06:09:37;;;;;;;17.33;5.55;;;3.90;88.40;;;;;;5021594;28;20389;-60
2022/02/13 06:12:03;;;;;;;23.90;5.78;;;3.90;88.40;;;;;;5012593;28;20046;-60
2022/02/13 06:14:29;;;;;;;19.02;4.95;;;3.90;88.30;;;;;;5019321;28;20037;-61
2022/02/13 06:16:56;;;;;;;19.15;5.13;;;3.90;88.30;;;;;;5015092;28;20037;-60
2022/02/13 06:19:21;;;;;;;18.45;5.30;;;3.90;88.40;;;;;;5019810;28;20454;-61
2022/02/13 06:21:47;;;;;;;27.05;5.03;;;3.90;88.40;;;;;;5019832;28;20048;-61
2022/02/13 06:24:13;;;;;;;21.27;5.15;;;3.90;88.40;;;;;;5025306;28;20037;-62
2022/02/13 06:26:39;;;;;;;16.92;5.32;;;3.90;88.40;;;;;;5022195;28;20034;-60
2022/02/13 06:29:05;;;;;;;14.60;4.57;;;3.90;88.40;;;;;;5031721;28;20040;-61
2022/02/13 06:31:31;;;;;;;17.65;4.97;;;3.90;88.50;;;;;;5028295;28;20075;-61
2022/02/13 06:33:56;;;;;;;18.10;4.43;;;3.90;88.80;;;;;;5025102;28;20021;-59
2022/02/13 06:36:22;;;;;;;16.02;4.60;;;3.90;89.00;;;;;;5026479;28;20064;-59
2022/02/13 06:38:47;;;;;;;17.92;4.93;;;3.80;89.00;;;;;;5024516;28;20037;-61
2022/02/13 06:41:13;;;;;;;17.17;4.65;;;3.90;89.10;;;;;;5021336;28;20033;-61
2022/02/13 06:43:38;;;;;;;13.18;4.70;;;3.80;89.20;;;;;;5025081;28;20029;-60
2022/02/13 06:46:04;;;;;;;9.05;4.10;;;3.80;89.50;;;;;;5014873;28;20033;-61
2022/02/13 06:48:31;;;;;;;14.05;5.03;;;3.80;89.70;;;;;;5007121;28;20029;-60
2022/02/13 06:50:57;;;;;;;13.32;3.85;;;3.80;89.70;;;;;;5010722;28;20066;-60
2022/02/13 06:53:23;;;;;;;13.05;4.72;;;3.90;89.90;;;;;;5010420;28;20415;-61
2022/02/13 06:55:49;;;;;;;15.57;4.57;;;3.80;89.80;;;;;;5025534;28;20033;-62
2022/02/13 06:58:15;;;;;;;16.30;5.05;;;3.80;89.70;;;;;;5022113;28;20100;-61
2022/02/13 07:00:40;;;;;;;13.02;4.65;;;3.80;89.60;;;;;;5012409;28;20033;-60
2022/02/13 07:03:07;;;;;;;15.32;4.72;;;3.80;89.70;;;;;;5017027;28;20064;-61
2022/02/13 07:05:33;;;;;;;16.42;4.60;;;3.90;89.80;;;;;;5021816;28;20120;-61
2022/02/13 07:07:58;;;;;;;16.17;5.13;;;3.90;89.70;;;;;;5028819;28;20105;-61
2022/02/13 07:10:24;;;;;;;18.20;5.47;;;3.90;89.70;;;;;;5015681;28;20028;-60
2022/02/13 07:12:49;;;;;;;22.58;4.95;;;3.90;89.60;;;;;;5024220;28;20022;-60
2022/02/13 07:15:15;;;;;;;21.60;5.20;;;3.90;89.60;;;;;;5013610;28;20026;-61
2022/02/13 07:17:41;;;;;;;9.43;5.20;;;3.90;89.50;;;;;;5007725;28;20049;-60
2022/02/13 07:20:07;;;;;;;23.17;6.00;;;3.90;89.50;;;;;;5027886;28;20036;-61
2022/02/13 07:22:32;;;;;;;12.07;4.45;;;3.90;89.40;;;;;;5024949;28;20018;-62
2022/02/13 07:24:58;;;;;;;21.42;4.53;;;3.90;89.30;;;;;;5025646;28;20017;-61
2022/02/13 07:27:23;;;;;;;22.33;6.00;;;3.90;89.30;;;;;;5028197;28;20026;-60
2022/02/13 07:29:49;;;;;;;23.63;6.18;;;3.90;89.40;;;;;;5009629;28;20049;-60
2022/02/13 07:32:14;;;;;;;19.15;5.70;;;3.90;89.40;;;;;;5026254;28;20076;-59
2022/02/13 07:34:40;;;;;;;21.95;5.32;;;3.90;89.40;;;;;;5023077;28;20574;-62
2022/02/13 07:37:05;;;;;;;18.25;5.97;;;3.90;89.40;;;;;;5026801;28;20036;-60
2022/02/13 07:39:32;;;;;;;29.42;5.45;;;3.90;89.30;;;;;;5025754;28;20429;-61
2022/02/13 07:41:57;;;;;;;20.55;5.07;;;3.90;89.30;;;;;;5023191;28;20028;-61
2022/02/13 07:44:23;;;;;;;19.40;4.80;;;3.90;89.30;;;;;;5023244;28;20114;-61
2022/02/13 07:46:49;;;;;;;28.40;6.00;;;3.90;89.30;;;;;;5020662;28;20533;-60
2022/02/13 07:49:14;;;;;;;28.58;5.75;;;3.90;89.20;;;;;;5023312;28;20026;-60
2022/02/13 07:51:40;;;;;;;18.23;4.88;;;3.90;89.30;;;;;;5022348;28;20060;-60
2022/02/13 07:54:06;;;;;;;23.77;5.40;;;3.90;89.30;;;;;;5020836;28;20105;-61
2022/02/13 07:56:31;;;;;;;12.18;4.95;;;3.90;89.30;;;;;;5031524;28;20069;-62
2022/02/13 07:58:57;;;;;;;22.77;5.97;;;3.90;89.30;;;;;;5029446;28;20052;-60
2022/02/13 08:01:24;;;;;;;15.30;5.40;;;3.90;89.30;;;;;;5023847;28;20565;-60
2022/02/13 08:03:49;;;;;;;18.73;5.50;;;3.90;89.30;;;;;;5028384;28;20064;-61
2022/02/13 08:06:17;;;;;;;15.30;5.20;;;3.90;89.50;;;;;;5032413;28;20057;-61
2022/02/13 08:08:42;;;;;;;13.75;5.65;;;3.90;89.50;;;;;;5031669;28;20184;-60
2022/02/13 08:11:08;;;;;;;16.08;5.20;;;3.90;89.60;;;;;;5026841;28;20484;-60
2022/02/13 08:13:34;;;;;;;13.70;5.88;;;3.90;89.70;;;;;;5018430;28;20343;-60
2022/02/13 08:15:59;;;;;;;13.60;5.60;;;3.90;90.20;;;;;;5022391;28;20109;-61
2022/02/13 08:18:25;;;;;;;20.90;6.60;;;3.90;89.80;;;;;;5005065;28;20029;-61
2022/02/13 08:20:54;;;;;;;17.40;5.85;;;3.90;89.80;;;;;;5019611;28;20469;-60
2022/02/13 08:23:20;;;;;;;19.00;6.50;;;3.90;89.90;;;;;;5016136;28;20120;-61
2022/02/13 08:25:45;;;;;;;16.15;5.43;;;3.90;89.90;;;;;;5019939;28;20110;-61
2022/02/13 08:28:11;;;;;;;14.90;5.60;;;3.80;89.70;;;;;;5022266;28;20056;-61
2022/02/13 08:30:37;;;;;;;13.00;5.10;;;3.90;89.80;;;;;;5017300;28;20084;-62
2022/02/13 08:33:02;;;;;;;12.30;5.57;;;3.90;89.80;;;;;;5022204;28;20022;-60
2022/02/13 08:35:28;;;;;;;15.13;5.32;;;3.90;89.80;;;;;;5016751;28;20482;-61
2022/02/13 08:37:53;;;;;;;10.35;4.68;;;3.80;89.70;;;;;;5008727;28;20018;-59
2022/02/13 08:40:19;;;;;;;14.23;5.53;;;3.80;89.70;;;;;;5019080;28;20102;-61
2022/02/13 08:42:45;;;;;;;10.68;5.05;;;3.80;89.70;;;;;;5026343;28;20029;-60
2022/02/13 08:45:10;;;;;;;17.20;5.50;;;3.90;89.70;;;;;;5002671;28;20030;-61
2022/02/13 08:47:36;;;;;;;11.68;5.25;;;3.90;89.70;;;;;;5017887;28;20124;-60
2022/02/13 08:50:01;;;;;;;11.93;5.30;;;3.80;89.60;;;;;;5015151;28;20033;-62
2022/02/13 08:52:27;;;;;;;9.05;5.05;;;3.90;89.60;;;;;;5010407;28;20276;-60
2022/02/13 08:54:52;;;;;;;12.80;5.40;;;3.90;89.50;;;;;;5018829;28;20544;-60
2022/02/13 08:57:18;;;;;;;12.80;4.97;;;3.90;89.50;;;;;;5021752;28;20044;-62
2022/02/13 08:59:43;;;;;;;12.32;5.30;;;3.90;89.50;;;;;;5016411;28;20026;-60
2022/02/13 09:02:09;;;;;;;12.25;5.10;;;3.90;89.50;;;;;;5020435;28;20053;-61
2022/02/13 09:04:35;;;;;;;12.43;5.00;;;3.90;89.40;;;;;;5020232;28;20040;-62
2022/02/13 09:07:01;;;;;;;8.13;4.95;;;3.90;89.40;;;;;;5028413;28;20038;-61
2022/02/13 09:09:27;;;;;;;6.72;4.18;;;3.90;89.30;;;;;;5020861;28;20022;-60
2022/02/13 09:11:53;;;;;;;13.02;5.47;;;3.90;89.20;;;;;;5023875;28;20419;-60
2022/02/13 09:14:18;;;;;;;10.98;4.97;;;4.00;89.30;;;;;;5016320;28;20058;-60
2022/02/13 09:16:44;;;;;;;7.60;5.00;;;3.90;89.10;;;;;;5021474;28;20125;-60
2022/02/13 09:19:09;;;;;;;7.90;4.30;;;4.00;89.20;;;;;;5015351;28;20029;-60
2022/02/13 09:21:35;;;;;;;13.27;5.82;;;4.00;89.20;;;;;;5023099;28;20021;-58
2022/02/13 09:24:01;;;;;;;10.05;4.97;;;4.00;89.20;;;;;;5014286;28;20044;-60
2022/02/13 09:26:26;;;;;;;8.35;4.50;;;4.00;89.10;;;;;;5025818;28;20028;-60
2022/02/13 09:28:52;;;;;;;11.40;4.40;;;4.00;89.10;;;;;;5024035;28;20056;-59
2022/02/13 09:31:17;;;;;;;8.57;4.60;;;4.10;89.20;;;;;;5023857;28;20495;-62
2022/02/13 09:33:44;;;;;;;14.07;4.40;;;4.10;89.30;;;;;;5015367;28;20484;-61
2022/02/13 09:36:09;;;;;;;8.10;4.53;;;4.10;89.20;;;;;;5011688;28;20029;-61
2022/02/13 09:38:35;;;;;;;12.20;4.90;;;4.10;89.10;;;;;;5018310;28;20029;-60
2022/02/13 09:41:01;;;;;;;10.93;4.38;;;4.10;89.10;;;;;;5018304;28;20573;-61
2022/02/13 09:43:26;;;;;;;12.05;5.07;;;4.20;89.20;;;;;;5026245;28;20101;-60
2022/02/13 09:45:52;;;;;;;14.88;4.70;;;4.20;89.30;;;;;;5024223;28;20095;-60
2022/02/13 09:48:20;;;;;;;12.15;5.07;;;4.20;89.60;;;;;;5025977;28;20107;-60
2022/02/13 09:50:46;;;;;;;20.80;5.68;;;4.20;89.60;;;;;;5028929;28;20018;-61
2022/02/13 09:53:14;;;;;;;12.68;5.00;;;4.20;89.70;;;;;;5033507;28;20018;-60
2022/02/13 09:55:40;;;;;;;23.50;5.82;;;4.20;89.70;;;;;;5026021;28;20064;-60
2022/02/13 09:58:05;;;;;;;14.88;5.80;;;4.30;90.10;;;;;;5022506;28;20461;-60
2022/02/13 10:00:54;;;;;;;20.48;5.45;;;4.30;89.60;;;;;;5023825;28;20104;-61
2022/02/13 10:03:30;;;;;;;13.75;5.60;;;4.40;89.50;;;;;;5018459;28;20041;-61
2022/02/13 10:06:02;;;;;;;27.25;6.20;;;4.40;89.40;;;;;;5022588;28;20037;-61
2022/02/13 10:08:32;;;;;;;30.20;6.20;;;4.40;89.40;;;;;;5026838;28;20056;-61
2022/02/13 10:11:08;;;;;;;31.90;6.38;;;4.40;89.40;;;;;;5023098;28;20033;-60
2022/02/13 10:13:47;;;;;;;27.20;7.30;;;4.50;89.40;;;;;;5022684;28;20029;-60
2022/02/13 10:16:27;;;;;;;27.23;6.57;;;4.50;89.40;;;;;;5029434;28;20072;-60
2022/02/13 10:18:57;;;;;;;31.27;6.35;;;4.50;89.50;;;;;;5024248;28;20009;-60
2022/02/13 10:21:39;;;;;;;39.97;7.55;;;4.50;89.50;;;;;;5019631;28;20037;-60
2022/02/13 10:24:21;;;;;;;31.50;7.15;;;4.60;89.50;;;;;;5021881;28;20538;-61
2022/02/13 10:26:56;;;;;;;48.40;7.97;;;4.60;89.30;;;;;;5024310;28;20041;-60
2022/02/13 10:29:22;;;;;;;59.92;8.90;;;4.60;89.40;;;;;;5019064;28;20067;-60
2022/02/13 10:31:48;;;;;;;48.22;7.50;;;4.70;89.30;;;;;;5023089;28;20026;-61
2022/02/13 10:34:14;;;;;;;43.03;8.15;;;4.70;89.50;;;;;;5019485;28;20041;-61
2022/02/13 10:36:42;;;;;;;33.47;7.25;;;4.70;89.70;;;;;;5021804;28;20040;-60
2022/02/13 10:39:20;;;;;;;45.70;8.52;;;4.70;89.60;;;;;;5004639;28;20021;-59
2022/02/13 10:41:46;;;;;;;44.47;9.30;;;4.70;89.20;;;;;;5029045;28;20461;-60
2022/02/13 10:44:12;;;;;;;59.05;8.52;;;4.80;89.20;;;;;;5024769;28;20082;-61
2022/02/13 10:46:39;;;;;;;45.88;8.55;;;4.80;89.10;;;;;;5018462;28;20461;-60
2022/02/13 10:49:05;;;;;;;61.53;9.95;;;4.80;89.00;;;;;;5008344;28;20029;-61
2022/02/13 10:51:31;;;;;;;88.00;11.45;;;4.90;89.00;;;;;;4998933;28;20052;-60
2022/02/13 10:53:57;;;;;;;75.15;11.50;;;4.90;88.90;;;;;;4997428;28;20033;-60
2022/02/13 10:56:23;;;;;;;90.15;13.45;;;4.90;89.20;;;;;;5022986;28;20245;-61
2022/02/13 10:58:48;;;;;;;88.53;11.38;;;5.00;89.50;;;;;;5019571;28;20657;-63
2022/02/13 11:01:16;;;;;;;102.85;13.13;;;5.00;89.50;;;;;;5019198;28;20145;-61
2022/02/13 11:03:42;;;;;;;74.55;11.60;;;5.00;89.60;;;;;;5019414;28;20033;-59
2022/02/13 11:06:07;;;;;;;67.00;11.65;;;5.00;89.40;;;;;;5018236;28;20400;-62
2022/02/13 11:08:59;;;;;;;145.45;16.85;;;5.00;89.10;;;;;;5018400;28;20101;-62
2022/02/13 11:11:24;;;;;;;88.47;12.00;;;5.10;89.00;;;;;;5010374;28;20045;-63
2022/02/13 11:13:50;;;;;;;79.78;12.75;;;5.10;88.90;;;;;;5013717;28;20468;-62
2022/02/13 11:16:36;;;;;;;62.55;11.80;;;5.10;88.80;;;;;;5022094;28;20516;-61
2022/02/13 11:19:04;;;;;;;84.15;11.32;;;5.20;88.60;;;;;;5022410;28;20445;-62
2022/02/13 11:21:31;;;;;;;81.70;11.77;;;5.20;88.40;;;;;;5022921;28;20068;-61
2022/02/13 11:23:57;;;;;;;83.75;12.27;;;5.20;88.10;;;;;;5018714;28;20442;-62
2022/02/13 11:26:42;;;;;;;95.90;13.68;;;5.20;88.10;;;;;;5020369;28;20467;-61
2022/02/13 11:29:12;;;;;;;81.18;13.45;;;5.30;88.30;;;;;;4992648;28;20045;-62
2022/02/13 11:31:43;;;;;;;78.35;12.30;;;5.30;88.30;;;;;;4995922;28;20536;-61
2022/02/13 11:34:26;;;;;;;79.05;11.52;;;5.30;88.30;;;;;;5025586;28;20092;-62
2022/02/13 11:37:00;;;;;;;106.75;14.52;;;5.40;88.30;;;;;;5019603;28;20398;-60
2022/02/13 11:39:42;;;;;;;58.72;11.07;;;5.40;88.30;;;;;;5024292;28;20040;-61
2022/02/13 11:42:18;;;;;;;89.88;11.98;;;5.40;88.10;;;;;;5020417;28;20079;-61
2022/02/13 11:44:49;;;;;;;94.30;14.50;;;5.40;88.00;;;;;;5024487;28;20342;-61
2022/02/13 11:47:31;;;;;;;80.20;12.98;;;5.40;87.80;;;;;;5027883;28;20041;-61
2022/02/13 11:50:09;;;;;;;75.93;11.60;;;5.40;88.10;;;;;;5024608;28;20057;-62
2022/02/13 11:52:36;;;;;;;90.38;11.63;;;5.40;88.10;;;;;;5014841;28;20096;-64
2022/02/13 11:55:12;;;;;;;71.03;10.55;;;5.50;88.00;;;;;;5019253;28;20045;-61
2022/02/13 11:57:39;;;;;;;64.53;11.40;;;5.50;87.80;;;;;;5024091;28;20043;-60
2022/02/13 12:00:10;;;;;;;73.22;12.23;;;5.50;87.70;;;;;;5024737;28;20116;-61
2022/02/13 12:02:37;;;;;;;80.90;11.45;;;5.60;87.60;;;;;;4998903;28;20022;-61
2022/02/13 12:05:11;;;;;;;60.78;10.63;;;5.60;87.50;;;;;;5027550;28;20875;-60
2022/02/13 12:07:54;;;;;;;81.15;12.40;;;5.60;87.50;;;;;;5017566;28;20036;-60
2022/02/13 12:10:20;;;;;;;79.20;12.00;;;5.60;87.40;;;;;;5029784;28;20029;-61
2022/02/13 12:12:46;;;;;;;64.90;9.70;;;5.70;87.30;;;;;;4995675;28;20390;-60
2022/02/13 12:15:15;;;;;;;84.95;10.93;;;5.70;87.00;;;;;;5013773;28;20172;-60
2022/02/13 12:17:41;;;;;;;109.15;12.95;;;5.70;86.70;;;;;;5014835;28;20069;-61
2022/02/13 12:20:08;;;;;;;80.43;11.80;;;5.80;87.30;;;;;;5017260;28;20568;-60
2022/02/13 12:22:34;;;;;;;84.45;12.38;;;5.80;87.10;;;;;;5016732;28;20040;-61
2022/02/13 12:25:01;;;;;;;80.85;11.13;;;5.80;87.10;;;;;;5018379;28;20029;-61
2022/02/13 12:27:26;;;;;;;89.10;12.52;;;5.90;86.90;;;;;;5006102;28;20424;-60
2022/02/13 12:29:56;;;;;;;133.35;15.57;;;5.90;86.60;;;;;;5019616;28;20057;-61
2022/02/13 12:32:25;;;;;;;94.18;12.90;;;5.90;86.50;;;;;;5024575;28;20073;-60
2022/02/13 12:34:59;;;;;;;87.80;12.07;;;5.90;86.30;;;;;;5010016;28;20100;-61
2022/02/13 12:37:40;;;;;;;79.93;11.85;;;5.90;86.10;;;;;;5025691;28;20124;-61
2022/02/13 12:40:16;;;;;;;80.75;10.77;;;6.00;86.20;;;;;;5016675;28;20028;-60
2022/02/13 12:42:46;;;;;;;70.28;10.48;;;6.00;86.10;;;;;;5024134;28;20105;-60